Decoded Metar for KUGN (CHICAGO in IL, USA) (IATA:UGN) | Meteo·Mobile Aviation Weather
aviador You're here:

KUGN Decoded Metar

CHICAGO in IL, USA
Report Time2018-09-24 17:55:00
UTC Time2018-09-24 18:06:06
Flight Rules ifr IFR
Wind120° at 09 kt
W.Decomp.*RWY 14: 8.6 kt HW 2.6 kt LCW
RWY 05: 2.6 kt HW 8.6 kt RCW
W.Rank120° ranks 23
Current wind is above 120° avg. (7.1)
Visibility9999 m
Phenomena:N/A
Clouds:Overcast 009 Hf
Expected CloudBase > 1,200 ft AGL from Temp-Dew spread
Ceiling900 ft
Temp19°C (ISA +5)
Dew Point16°C (83% RH)
AAT17.8°C
QNH1017 hPa
Density Alt1,476 ft
Elevation728 ft
Report Wrong Elevation
Raw Report
METAR KUGN 241755Z 12009KT 10SM OVC009 19/16 A3002 RMK AO2 SLP161 T01890156
10200 20161 58021=

Extra information for KUGN:More info

Metar Taf Metar & Taf Last 4 Metars F.Rules Stats Wind Profile Meteogram Temp Stats Airport Information Weather charts Add Link Nearby VenuesMetar ALERT Operation Metar Decoded Social comments

AIRNAV info for KUGN